createdAt,value
2022-09-10T00:00:33.586Z,5.43
2022-09-10T00:03:02.846Z,4.03
2022-09-10T00:05:31.990Z,6.35
2022-09-10T00:07:59.594Z,8.60
2022-09-10T00:10:27.398Z,4.63
2022-09-10T00:12:55.738Z,4.30
2022-09-10T00:15:23.550Z,4.10
2022-09-10T00:17:51.185Z,6.55
2022-09-10T00:20:19.005Z,7.97
2022-09-10T00:22:48.873Z,4.07
2022-09-10T00:25:16.531Z,3.28
2022-09-10T00:27:44.169Z,5.32
2022-09-10T00:30:12.807Z,7.97
2022-09-10T00:32:40.534Z,8.60
2022-09-10T00:35:08.956Z,5.63
2022-09-10T00:37:37.526Z,4.75
2022-09-10T00:40:09.229Z,5.05
2022-09-10T00:42:36.873Z,4.97
2022-09-10T00:45:05.822Z,5.47
2022-09-10T00:47:38.494Z,5.80
2022-09-10T00:50:13.696Z,4.70
2022-09-10T00:52:41.919Z,6.05
2022-09-10T00:55:13.460Z,7.57
2022-09-10T00:57:42.793Z,5.75
2022-09-10T01:00:13.643Z,6.40
2022-09-10T01:02:41.577Z,5.22
2022-09-10T01:05:11.627Z,4.38
2022-09-10T01:07:40.286Z,5.03
2022-09-10T01:10:12.832Z,3.72
2022-09-10T01:12:59.115Z,7.25
2022-09-10T01:15:36.349Z,4.13
2022-09-10T01:18:18.753Z,5.75
2022-09-10T01:20:57.115Z,8.30
2022-09-10T01:24:00.690Z,5.82
2022-09-10T01:26:45.414Z,4.60
2022-09-10T01:29:22.151Z,5.05
2022-09-10T01:31:55.202Z,6.40
2022-09-10T01:34:29.726Z,6.53
2022-09-10T01:37:03.093Z,6.72
2022-09-10T01:39:31.579Z,5.22
2022-09-10T01:41:59.215Z,6.57
2022-09-10T01:44:47.325Z,4.38
2022-09-10T01:47:21.957Z,3.65
2022-09-10T01:50:07.910Z,7.78
2022-09-10T01:52:43.842Z,6.53
2022-09-10T01:55:20.742Z,6.72
2022-09-10T01:57:55.480Z,9.18
2022-09-10T02:00:26.653Z,8.63
2022-09-10T02:02:59.990Z,7.47
2022-09-10T02:05:31.375Z,6.47
2022-09-10T02:08:03.684Z,5.43
2022-09-10T02:10:31.962Z,6.03
2022-09-10T02:12:59.703Z,8.75
2022-09-10T02:15:32.540Z,4.20
2022-09-10T02:18:01.316Z,6.72
2022-09-10T02:20:30.422Z,5.18
2022-09-10T02:23:00.928Z,5.88
2022-09-10T02:25:34.188Z,5.35
2022-09-10T02:28:02.020Z,6.60
2022-09-10T02:30:31.032Z,8.10
2022-09-10T02:32:58.690Z,6.45
2022-09-10T02:35:26.365Z,5.30
2022-09-10T02:37:53.976Z,4.82
2022-09-10T02:40:21.603Z,4.70
2022-09-10T02:42:49.233Z,5.65
2022-09-10T02:45:17.143Z,6.95
2022-09-10T02:47:46.162Z,6.65
2022-09-10T02:50:13.782Z,6.05
2022-09-10T02:52:41.393Z,5.72
2022-09-10T02:55:09.513Z,6.95
2022-09-10T02:57:37.110Z,7.22
2022-09-10T03:00:05.343Z,7.00
2022-09-10T03:02:33.433Z,4.60
2022-09-10T03:05:04.824Z,9.48
2022-09-10T03:07:32.587Z,4.22
2022-09-10T03:10:00.223Z,6.25
2022-09-10T03:12:27.868Z,3.60
2022-09-10T03:14:58.041Z,5.78
2022-09-10T03:17:26.054Z,4.97
2022-09-10T03:19:53.677Z,8.65
2022-09-10T03:22:22.733Z,7.30
2022-09-10T03:24:50.373Z,5.03
2022-09-10T03:27:18.071Z,5.90
2022-09-10T03:29:45.719Z,5.97
2022-09-10T03:32:13.366Z,9.23
2022-09-10T03:34:40.983Z,6.20
2022-09-10T03:37:08.638Z,7.88
2022-09-10T03:39:37.655Z,7.88
2022-09-10T03:42:05.829Z,6.82
2022-09-10T03:44:34.027Z,4.95
2022-09-10T03:47:01.662Z,4.82
2022-09-10T03:49:29.551Z,5.90
2022-09-10T03:51:57.177Z,6.72
2022-09-10T03:54:24.813Z,9.27
2022-09-10T03:56:53.925Z,7.82
2022-09-10T03:59:21.861Z,7.95
2022-09-10T04:01:50.713Z,5.95
2022-09-10T04:04:18.404Z,7.32
2022-09-10T04:06:46.073Z,6.75
2022-09-10T04:09:13.688Z,11.00
2022-09-10T04:11:41.356Z,6.65
2022-09-10T04:14:10.489Z,5.63
2022-09-10T04:16:38.336Z,6.80
2022-09-10T04:19:05.983Z,6.05
2022-09-10T04:21:33.591Z,6.88
2022-09-10T04:24:01.271Z,6.72
2022-09-10T04:26:28.897Z,7.57
2022-09-10T04:28:56.547Z,7.57
2022-09-10T04:31:25.684Z,7.85
2022-09-10T04:33:53.659Z,4.28
2022-09-10T04:36:21.322Z,9.40
2022-09-10T04:38:48.968Z,5.63
2022-09-10T04:41:18.161Z,7.88
2022-09-10T04:43:46.091Z,6.88
2022-09-10T04:46:13.730Z,7.00
2022-09-10T04:48:42.731Z,10.88
2022-09-10T04:51:17.439Z,5.43
2022-09-10T04:53:46.148Z,7.68
2022-09-10T04:56:14.258Z,11.02
2022-09-10T04:58:42.281Z,9.13
2022-09-10T05:01:10.251Z,4.63
2022-09-10T05:03:38.120Z,7.03
2022-09-10T05:06:07.471Z,8.18
2022-09-10T05:08:35.249Z,6.05
2022-09-10T05:11:03.253Z,7.15
2022-09-10T05:13:31.619Z,8.38
2022-09-10T05:15:59.740Z,6.93
2022-09-10T05:18:27.422Z,5.60
2022-09-10T05:20:55.139Z,6.20
2022-09-10T05:23:24.190Z,4.65
2022-09-10T05:25:51.814Z,6.95
2022-09-10T05:28:20.809Z,7.30
2022-09-10T05:30:51.702Z,7.72
2022-09-10T05:33:19.693Z,9.45
2022-09-10T05:35:51.507Z,7.80
2022-09-10T05:38:19.554Z,7.30
2022-09-10T05:40:48.972Z,8.50
2022-09-10T05:43:16.610Z,5.97
2022-09-10T05:45:44.326Z,8.38
2022-09-10T05:48:12.013Z,7.47
2022-09-10T05:50:39.675Z,8.23
2022-09-10T05:53:07.331Z,7.70
2022-09-10T05:55:35.058Z,6.88
2022-09-10T05:58:04.123Z,7.03
2022-09-10T06:00:31.878Z,6.13
2022-09-10T06:02:59.626Z,7.47
2022-09-10T06:05:27.799Z,7.13
2022-09-10T06:07:56.605Z,9.48
2022-09-10T06:10:24.553Z,9.93
2022-09-10T06:12:52.728Z,7.05
2022-09-10T06:15:22.191Z,7.65
2022-09-10T06:17:50.037Z,10.70
2022-09-10T06:20:17.679Z,8.93
2022-09-10T06:22:45.271Z,7.63
2022-09-10T06:25:12.967Z,6.93
2022-09-10T06:27:41.393Z,7.10
2022-09-10T06:30:09.945Z,7.70
2022-09-10T06:32:39.289Z,7.15
2022-09-10T06:35:07.592Z,7.57
2022-09-10T06:37:35.249Z,7.15
2022-09-10T06:40:03.413Z,6.68
2022-09-10T06:42:32.157Z,5.90
2022-09-10T06:45:00.388Z,7.50
2022-09-10T06:48:06.825Z,7.00
2022-09-10T06:50:17.236Z,6.65
2022-09-10T06:52:44.886Z,5.53
2022-09-10T06:55:12.967Z,8.13
2022-09-10T06:57:40.785Z,6.78
2022-09-10T07:00:09.657Z,8.88
2022-09-10T07:02:37.295Z,8.77
2022-09-10T07:05:05.372Z,11.27
2022-09-10T07:07:34.365Z,7.90
2022-09-10T07:10:02.370Z,7.43
2022-09-10T07:12:29.977Z,6.07
2022-09-10T07:14:57.623Z,7.22
2022-09-10T07:17:28.735Z,5.20
2022-09-10T07:19:59.389Z,6.30
2022-09-10T07:22:26.978Z,7.28
2022-09-10T07:24:56.100Z,6.45
2022-09-10T07:27:23.827Z,7.40
2022-09-10T07:29:52.025Z,7.65
2022-09-10T07:32:19.657Z,5.22
2022-09-10T07:34:47.632Z,5.88
2022-09-10T07:37:15.717Z,5.40
2022-09-10T07:39:43.397Z,7.30
2022-09-10T07:42:12.480Z,5.75
2022-09-10T07:44:40.106Z,6.43
2022-09-10T07:47:07.813Z,7.10
2022-09-10T07:49:35.483Z,7.72
2022-09-10T07:52:04.312Z,6.38
2022-09-10T07:54:31.936Z,9.00
2022-09-10T07:56:59.586Z,7.18
2022-09-10T07:59:28.547Z,9.40
2022-09-10T08:01:56.252Z,12.25
2022-09-10T08:04:24.449Z,6.63
2022-09-10T08:06:52.270Z,7.47
2022-09-10T08:09:20.361Z,9.10
2022-09-10T08:11:48.044Z,12.52
2022-09-10T08:14:16.463Z,5.25
2022-09-10T08:16:45.521Z,7.80
2022-09-10T08:19:13.875Z,6.32
2022-09-10T08:21:41.728Z,8.18
2022-09-10T08:24:11.499Z,7.18
2022-09-10T08:26:39.162Z,6.53
2022-09-10T08:29:07.099Z,5.80
2022-09-10T08:31:35.100Z,5.05
2022-09-10T08:34:04.143Z,7.45
2022-09-10T08:36:31.899Z,19.35
2022-09-10T08:39:03.080Z,55.58
2022-09-10T08:41:42.588Z,81.07
2022-09-10T08:44:16.177Z,74.80
2022-09-10T08:46:48.392Z,60.03
2022-09-10T08:49:24.883Z,60.80
2022-09-10T08:51:58.122Z,54.05
2022-09-10T08:54:32.604Z,34.63
2022-09-10T08:57:03.638Z,29.70
2022-09-10T08:59:35.411Z,30.05
2022-09-10T09:02:37.819Z,24.52
2022-09-10T09:05:13.523Z,18.92
2022-09-10T09:07:41.500Z,19.00
2022-09-10T09:10:20.605Z,14.52
2022-09-10T09:13:04.218Z,15.18
2022-09-10T09:15:41.457Z,15.63
2022-09-10T09:18:21.759Z,11.27
2022-09-10T09:20:56.152Z,11.30
2022-09-10T09:23:26.237Z,11.32
2022-09-10T09:25:59.047Z,10.05
2022-09-10T09:28:41.801Z,9.75
2022-09-10T09:31:15.120Z,8.05
2022-09-10T09:33:45.364Z,8.60
2022-09-10T09:36:18.027Z,5.88
2022-09-10T09:38:50.897Z,6.72
2022-09-10T09:41:25.468Z,14.55
2022-09-10T09:43:59.388Z,7.68
2022-09-10T09:46:27.094Z,5.57
2022-09-10T09:49:00.077Z,5.93
2022-09-10T09:51:35.328Z,6.05
2022-09-10T09:56:59.971Z,6.72
2022-09-10T09:59:29.384Z,6.93
2022-09-10T10:02:01.156Z,9.00
2022-09-10T10:04:31.207Z,7.03
2022-09-10T10:07:01.975Z,8.85
2022-09-10T10:09:32.111Z,8.95
2022-09-10T10:12:01.546Z,10.90
2022-09-10T10:14:39.321Z,5.10
2022-09-10T10:17:38.452Z,8.30
2022-09-10T10:20:12.745Z,6.75
2022-09-10T10:22:43.135Z,10.68
2022-09-10T10:25:36.510Z,6.68
2022-09-10T10:28:04.609Z,9.27
2022-09-10T10:30:33.108Z,9.40
2022-09-10T10:33:02.943Z,7.60
2022-09-10T10:35:35.992Z,9.93
2022-09-10T10:38:25.135Z,8.82
2022-09-10T10:41:19.414Z,6.75
2022-09-10T10:43:55.704Z,9.35
2022-09-10T10:46:30.981Z,8.63
2022-09-10T10:49:10.362Z,8.18
2022-09-10T10:51:48.287Z,6.00
2022-09-10T10:54:35.206Z,8.23
2022-09-10T10:57:12.846Z,8.98
2022-09-10T10:59:53.174Z,7.78
2022-09-10T11:02:29.980Z,7.47
2022-09-10T11:05:02.442Z,10.45
2022-09-10T11:07:35.387Z,9.82
2022-09-10T11:10:13.447Z,7.35
2022-09-10T11:12:46.485Z,6.65
2022-09-10T11:15:30.285Z,7.32
2022-09-10T11:18:06.032Z,9.88
2022-09-10T11:20:41.211Z,8.00
2022-09-10T11:23:20.839Z,8.00
2022-09-10T11:25:57.059Z,6.20
2022-09-10T11:28:29.067Z,5.75
2022-09-10T11:31:03.251Z,5.03
2022-09-10T11:33:39.434Z,7.93
2022-09-10T11:36:15.354Z,4.95
2022-09-10T11:38:52.953Z,4.93
2022-09-10T11:41:25.204Z,5.70
2022-09-10T11:43:58.185Z,7.93
2022-09-10T11:46:31.740Z,5.25
2022-09-10T11:49:04.041Z,5.20
2022-09-10T11:51:34.911Z,6.15
2022-09-10T11:54:04.981Z,9.93
2022-09-10T11:56:47.002Z,7.10
2022-09-10T11:59:28.055Z,5.30
2022-09-10T12:02:15.934Z,4.50
2022-09-10T12:04:50.735Z,4.53
2022-09-10T12:07:32.454Z,5.70
2022-09-10T12:10:14.155Z,5.25
2022-09-10T12:12:45.795Z,5.22
2022-09-10T12:15:18.602Z,5.80
2022-09-10T12:17:50.760Z,4.63
2022-09-10T12:20:21.861Z,5.68
2022-09-10T12:22:54.715Z,5.93
2022-09-10T12:25:34.345Z,3.38
2022-09-10T12:28:07.870Z,5.78
2022-09-10T12:31:02.718Z,4.68
2022-09-10T12:34:08.071Z,5.00
2022-09-10T12:37:19.178Z,5.00
2022-09-10T12:39:46.969Z,4.97
2022-09-10T12:42:29.780Z,4.85
2022-09-10T12:44:58.946Z,6.18
2022-09-10T12:47:41.135Z,5.60
2022-09-10T12:50:21.482Z,5.53
2022-09-10T12:53:05.702Z,3.80
2022-09-10T12:55:44.387Z,7.88
2022-09-10T12:58:24.068Z,5.82
2022-09-10T13:01:11.861Z,3.88
2022-09-10T13:03:50.694Z,5.80
2022-09-10T13:06:18.621Z,5.00
2022-09-10T13:08:48.370Z,6.13
2022-09-10T13:11:20.919Z,6.07
2022-09-10T13:13:54.983Z,4.90
2022-09-10T13:16:41.251Z,7.78
2022-09-10T13:19:42.825Z,6.40
2022-09-10T13:22:32.345Z,6.20
2022-09-10T13:25:03.090Z,5.32
2022-09-10T13:27:39.992Z,5.45
2022-09-10T13:30:29.777Z,6.07
2022-09-10T13:33:01.654Z,2.53
2022-09-10T13:36:03.178Z,6.22
2022-09-10T13:39:06.194Z,8.55
2022-09-10T13:41:58.648Z,4.82
2022-09-10T13:44:41.052Z,3.05
2022-09-10T13:47:13.777Z,3.40
2022-09-10T13:49:54.734Z,4.03
2022-09-10T13:52:29.166Z,3.88
2022-09-10T13:54:58.661Z,3.65
2022-09-10T13:57:30.914Z,2.97
2022-09-10T14:00:05.672Z,2.28
2022-09-10T14:02:44.223Z,4.03
2022-09-10T14:05:41.931Z,3.33
2022-09-10T14:08:17.654Z,4.22
2022-09-10T14:10:55.942Z,2.88
2022-09-10T14:13:29.514Z,3.13
2022-09-10T14:16:00.638Z,4.93
2022-09-10T14:18:35.316Z,3.75
2022-09-10T14:21:04.928Z,3.45
2022-09-10T14:23:32.888Z,3.58
2022-09-10T14:26:12.167Z,7.25
2022-09-10T14:28:50.344Z,2.92
2022-09-10T14:31:29.849Z,4.28
2022-09-10T14:33:58.364Z,5.35
2022-09-10T14:36:34.679Z,4.22
2022-09-10T14:41:37.126Z,5.18
2022-09-10T14:44:16.570Z,4.07
2022-09-10T14:46:51.381Z,4.47
2022-09-10T14:49:25.580Z,3.42
2022-09-10T14:51:55.115Z,5.93
2022-09-10T14:54:24.424Z,5.25
2022-09-10T14:56:52.751Z,5.18
2022-09-10T14:59:29.243Z,8.48
2022-09-10T15:04:26.859Z,9.13
2022-09-10T15:06:57.281Z,11.90
2022-09-10T15:09:25.788Z,9.27
2022-09-10T15:11:56.529Z,9.57
2022-09-10T15:14:24.929Z,11.50
2022-09-10T15:16:54.111Z,8.70
2022-09-10T15:19:22.515Z,6.97
2022-09-10T15:21:50.933Z,7.72
2022-09-10T15:24:21.708Z,6.85
2022-09-10T15:26:51.491Z,8.00
2022-09-10T15:29:19.706Z,4.88
2022-09-10T15:31:47.351Z,9.30
2022-09-10T15:34:15.265Z,5.65
2022-09-10T15:36:43.094Z,4.72
2022-09-10T15:39:13.905Z,5.65
2022-09-10T15:41:45.195Z,6.25
2022-09-10T15:44:13.429Z,5.47
2022-09-10T15:46:45.212Z,9.70
2022-09-10T15:49:13.134Z,6.85
2022-09-10T15:51:42.128Z,6.70
2022-09-10T15:54:10.945Z,6.20
2022-09-10T15:56:39.165Z,6.28
2022-09-10T15:59:08.614Z,4.10
2022-09-10T16:01:38.281Z,7.07
2022-09-10T16:04:06.763Z,4.95
2022-09-10T16:06:36.506Z,4.50
2022-09-10T16:09:07.132Z,7.68
2022-09-10T16:11:37.300Z,4.78
2022-09-10T16:14:07.032Z,4.45
2022-09-10T16:16:37.229Z,7.57
2022-09-10T16:19:05.729Z,5.65
2022-09-10T16:21:36.190Z,6.40
2022-09-10T16:24:05.197Z,5.25
2022-09-10T16:26:34.606Z,8.30
2022-09-10T16:29:05.761Z,7.57
2022-09-10T16:31:35.707Z,5.13
2022-09-10T16:34:06.987Z,5.28
2022-09-10T16:36:36.865Z,8.63
2022-09-10T16:39:07.372Z,5.50
2022-09-10T16:41:35.034Z,7.28
2022-09-10T16:44:02.980Z,7.25
2022-09-10T16:46:30.966Z,6.03
2022-09-10T16:48:59.486Z,5.05
2022-09-10T16:51:29.695Z,5.68
2022-09-10T16:54:02.445Z,5.35
2022-09-10T16:56:33.578Z,6.78
2022-09-10T16:59:01.346Z,4.72
2022-09-10T17:01:29.477Z,5.38
2022-09-10T17:03:57.193Z,6.30
2022-09-10T17:06:27.389Z,6.15
2022-09-10T17:08:58.291Z,5.80
2022-09-10T17:11:27.441Z,4.72
2022-09-10T17:13:56.846Z,6.97
2022-09-10T17:16:26.139Z,7.60
2022-09-10T17:18:58.437Z,6.57
2022-09-10T17:21:26.525Z,4.30
2022-09-10T17:23:56.208Z,5.85
2022-09-10T17:26:24.270Z,5.82
2022-09-10T17:28:56.475Z,4.40
2022-09-10T17:31:24.955Z,8.75
2022-09-10T17:33:52.845Z,4.25
2022-09-10T17:36:20.879Z,6.75
2022-09-10T17:38:48.999Z,5.65
2022-09-10T17:41:17.974Z,3.95
2022-09-10T17:43:45.629Z,4.85
2022-09-10T17:46:17.702Z,3.90
2022-09-10T17:48:45.859Z,6.43
2022-09-10T17:51:15.345Z,5.05
2022-09-10T17:53:43.410Z,5.15
2022-09-10T17:56:14.140Z,4.15
2022-09-10T17:58:43.644Z,3.15
2022-09-10T18:01:22.530Z,3.85
2022-09-10T18:03:51.371Z,4.38
2022-09-10T18:06:19.225Z,3.50
2022-09-10T18:08:46.945Z,4.03
2022-09-10T18:11:17.422Z,2.83
2022-09-10T18:13:49.261Z,4.15
2022-09-10T18:16:18.731Z,4.13
2022-09-10T18:18:52.699Z,8.02
2022-09-10T18:21:23.931Z,6.53
2022-09-10T18:23:53.024Z,4.97
2022-09-10T18:26:23.597Z,6.60
2022-09-10T18:28:59.400Z,4.43
2022-09-10T18:31:29.481Z,6.90
2022-09-10T18:33:58.084Z,5.38
2022-09-10T18:36:26.352Z,4.25
2022-09-10T18:38:54.182Z,5.43
2022-09-10T18:41:24.860Z,4.00
2022-09-10T18:43:53.861Z,4.90
2022-09-10T18:46:23.746Z,5.03
2022-09-10T18:48:52.315Z,4.22
2022-09-10T18:51:22.132Z,6.20
2022-09-10T18:53:54.048Z,4.40
2022-09-10T18:56:24.283Z,5.78
2022-09-10T18:58:53.512Z,5.65
2022-09-10T19:01:23.441Z,3.15
2022-09-10T19:03:51.261Z,4.82
2022-09-10T19:06:21.295Z,4.40
2022-09-10T19:08:50.303Z,4.00
2022-09-10T19:11:18.973Z,3.83
2022-09-10T19:13:49.601Z,3.63
2022-09-10T19:16:18.087Z,4.47
2022-09-10T19:18:50.780Z,3.65
2022-09-10T19:21:20.144Z,4.88
2022-09-10T19:23:49.269Z,3.95
2022-09-10T19:26:17.056Z,4.50
2022-09-10T19:28:45.470Z,3.55
2022-09-10T19:31:15.667Z,3.92
2022-09-10T19:33:43.867Z,4.63
2022-09-10T19:36:15.430Z,4.05
2022-09-10T19:38:43.341Z,5.50
2022-09-10T19:41:13.114Z,9.23
2022-09-10T19:43:42.128Z,4.47
2022-09-10T19:46:11.614Z,3.70
2022-09-10T19:48:39.947Z,4.22
2022-09-10T19:51:09.968Z,4.00
2022-09-10T19:53:40.325Z,3.35
2022-09-10T19:56:11.267Z,4.90
2022-09-10T19:58:39.276Z,3.17
2022-09-10T20:01:10.581Z,3.00
2022-09-10T20:03:39.885Z,4.35
2022-09-10T20:06:11.326Z,4.78
2022-09-10T20:08:41.705Z,5.72
2022-09-10T20:11:15.267Z,3.22
2022-09-10T20:13:43.419Z,4.35
2022-09-10T20:16:11.198Z,4.85
2022-09-10T20:18:39.358Z,4.30
2022-09-10T20:21:12.866Z,4.90
2022-09-10T20:23:42.980Z,3.28
2022-09-10T20:26:14.218Z,3.58
2022-09-10T20:28:42.238Z,8.63
2022-09-10T20:31:11.842Z,5.32
2022-09-10T20:33:42.273Z,7.93
2022-09-10T20:36:14.981Z,5.95
2022-09-10T20:38:44.270Z,4.07
2022-09-10T20:41:12.859Z,5.35
2022-09-10T20:43:40.947Z,7.60
2022-09-10T20:46:15.921Z,6.38
2022-09-10T20:48:48.847Z,6.43
2022-09-10T20:51:18.015Z,5.85
2022-09-10T20:53:47.691Z,5.80
2022-09-10T20:56:17.598Z,6.20
2022-09-10T20:58:46.252Z,5.25
2022-09-10T21:01:16.423Z,5.93
2022-09-10T21:03:44.609Z,5.45
2022-09-10T21:06:13.949Z,6.40
2022-09-10T21:08:43.115Z,7.22
2022-09-10T21:11:15.183Z,4.78
2022-09-10T21:13:45.140Z,5.82
2022-09-10T21:16:14.499Z,6.65
2022-09-10T21:18:42.890Z,6.07
2022-09-10T21:21:12.042Z,4.95
2022-09-10T21:23:44.290Z,5.63
2022-09-10T21:26:14.610Z,8.20
2022-09-10T21:28:44.705Z,8.25
2022-09-10T21:31:13.740Z,7.40
2022-09-10T21:33:43.351Z,5.50
2022-09-10T21:36:14.490Z,5.47
2022-09-10T21:38:42.320Z,7.95
2022-09-10T21:41:15.832Z,6.32
2022-09-10T21:43:45.041Z,7.53
2022-09-10T21:46:13.770Z,7.95
2022-09-10T21:48:42.632Z,8.60
2022-09-10T21:51:13.810Z,6.22
2022-09-10T21:53:42.541Z,6.38
2022-09-10T21:56:12.254Z,7.38
2022-09-10T21:58:41.964Z,8.60
2022-09-10T22:01:11.764Z,6.90
2022-09-10T22:03:39.854Z,8.82
2022-09-10T22:06:09.074Z,8.02
2022-09-10T22:08:38.345Z,7.22
2022-09-10T22:11:08.182Z,6.43
2022-09-10T22:13:37.905Z,6.55
2022-09-10T22:16:07.649Z,8.27
2022-09-10T22:18:35.348Z,7.85
2022-09-10T22:21:03.344Z,8.15
2022-09-10T22:23:33.322Z,7.50
2022-09-10T22:26:05.777Z,11.93
2022-09-10T22:28:35.015Z,7.32
2022-09-10T22:31:12.318Z,5.53
2022-09-10T22:33:41.581Z,7.90
2022-09-10T22:36:11.337Z,8.57
2022-09-10T22:38:39.266Z,4.88
2022-09-10T22:41:07.324Z,5.57
2022-09-10T22:43:35.667Z,6.82
2022-09-10T22:46:04.491Z,5.22
2022-09-10T22:48:33.978Z,5.78
2022-09-10T22:51:02.200Z,6.45
2022-09-10T22:53:30.064Z,7.57
2022-09-10T22:55:58.087Z,6.75
2022-09-10T22:58:26.332Z,6.03
2022-09-10T23:00:54.294Z,9.18
2022-09-10T23:03:22.369Z,8.05
2022-09-10T23:05:51.419Z,8.60
2022-09-10T23:08:19.089Z,7.22
2022-09-10T23:10:46.727Z,6.05
2022-09-10T23:13:14.371Z,6.82
2022-09-10T23:15:42.632Z,6.38
2022-09-10T23:18:11.236Z,4.85
2022-09-10T23:20:39.075Z,8.05
2022-09-10T23:23:08.055Z,7.47
2022-09-10T23:25:36.151Z,5.50
2022-09-10T23:28:07.195Z,6.25
2022-09-10T23:30:35.909Z,8.93
2022-09-10T23:33:03.545Z,9.00
2022-09-10T23:35:31.187Z,5.72
2022-09-10T23:37:58.844Z,6.72
2022-09-10T23:40:32.282Z,7.35
2022-09-10T23:43:01.741Z,9.93
2022-09-10T23:45:29.379Z,5.95
2022-09-10T23:47:57.142Z,10.02
2022-09-10T23:50:24.751Z,8.15
2022-09-10T23:52:52.374Z,8.35
2022-09-10T23:55:20.136Z,6.65
2022-09-10T23:57:49.132Z,6.78
